Time;durP1;ratioP1;P1;durP2;ratioP2;P2;SDS_P1;SDS_P2;PMS_P1;PMS_P2;Temp;Humidity;BMP_temperature;BMP_pressure;BME280_temperature;BME280_humidity;BME280_pressure;Samples;Min_cycle;Max_cycle;Signal;HPM_P1;HPM_P2
2022/08/22 00:00:41;;;;;;;5.72;4.60;;;;;;;;;;4974791;28;20046;-84
2022/08/22 00:03:20;;;;;;;7.60;5.18;;;;;;;;;;4974340;28;20038;-84
2022/08/22 00:05:46;;;;;;;8.15;4.65;;;;;;;;;;4974397;28;20498;-84
2022/08/22 00:08:22;;;;;;;6.93;5.28;;;;;;;;;;5004759;28;20042;-84
2022/08/22 00:11:07;;;;;;;8.02;5.45;;;;;;;;;;4974235;28;20114;-84
2022/08/22 00:13:40;;;;;;;6.60;5.20;;;;;;;;;;4973776;28;20358;-84
2022/08/22 00:16:07;;;;;;;8.38;5.50;;;;;;;;;;4973949;28;20153;-83
2022/08/22 00:18:33;;;;;;;8.50;5.90;;;;;;;;;;4972635;28;20055;-84
2022/08/22 00:21:10;;;;;;;11.30;6.00;;;;;;;;;;4973502;28;20447;-84
2022/08/22 00:23:51;;;;;;;8.98;5.70;;;;;;;;;;5005609;28;20101;-84
2022/08/22 00:26:23;;;;;;;8.05;5.75;;;;;;;;;;4974419;28;20061;-83
2022/08/22 00:29:11;;;;;;;6.85;5.00;;;;;;;;;;4972560;28;20503;-84
2022/08/22 00:31:43;;;;;;;8.35;5.45;;;;;;;;;;4974074;28;20045;-84
2022/08/22 00:34:12;;;;;;;8.38;5.47;;;;;;;;;;4973964;28;20047;-84
2022/08/22 00:36:45;;;;;;;8.77;5.85;;;;;;;;;;4973789;28;20043;-84
2022/08/22 00:39:31;;;;;;;6.40;5.65;;;;;;;;;;4972427;28;20046;-84
2022/08/22 00:42:09;;;;;;;6.47;5.47;;;;;;;;;;5003543;28;20121;-84
2022/08/22 00:44:48;;;;;;;9.98;6.38;;;;;;;;;;4973692;28;20043;-84
2022/08/22 00:47:14;;;;;;;9.23;6.22;;;;;;;;;;5004619;28;20069;-84
2022/08/22 00:49:43;;;;;;;10.05;6.72;;;;;;;;;;4972964;28;20055;-83
2022/08/22 00:52:23;;;;;;;12.23;6.93;;;;;;;;;;4973211;28;20051;-84
2022/08/22 00:54:49;;;;;;;11.00;7.10;;;;;;;;;;4973979;28;20049;-84
2022/08/22 00:57:24;;;;;;;10.45;5.97;;;;;;;;;;5004142;28;20046;-84
2022/08/22 00:59:50;;;;;;;11.30;5.90;;;;;;;;;;4972918;28;20043;-84
2022/08/22 01:02:43;;;;;;;9.52;5.55;;;;;;;;;;5004643;28;20054;-84
2022/08/22 01:05:17;;;;;;;7.93;5.57;;;;;;;;;;4972795;28;20527;-84
2022/08/22 01:07:49;;;;;;;8.45;5.45;;;;;;;;;;4973505;28;20047;-84
2022/08/22 01:10:26;;;;;;;8.60;5.57;;;;;;;;;;5003216;28;20042;-83
2022/08/22 01:12:52;;;;;;;15.15;6.15;;;;;;;;;;4972046;28;20574;-84
2022/08/22 01:15:23;;;;;;;10.50;6.75;;;;;;;;;;4973261;28;20035;-84
2022/08/22 01:17:52;;;;;;;10.43;7.05;;;;;;;;;;4973140;28;20051;-84
2022/08/22 01:20:28;;;;;;;12.43;8.15;;;;;;;;;;4969999;28;20047;-84
2022/08/22 01:23:00;;;;;;;9.77;7.07;;;;;;;;;;5003864;28;20448;-84
2022/08/22 01:25:41;;;;;;;9.90;7.18;;;;;;;;;;5004172;28;20488;-84
2022/08/22 01:28:43;;;;;;;11.00;6.78;;;;;;;;;;4971641;28;20054;-84
2022/08/22 01:31:21;;;;;;;9.75;6.25;;;;;;;;;;4972532;28;20046;-84
2022/08/22 01:34:05;;;;;;;10.35;6.32;;;;;;;;;;4973388;28;20058;-83
2022/08/22 01:36:34;;;;;;;8.65;6.20;;;;;;;;;;4989755;28;20052;-83
2022/08/22 01:39:02;;;;;;;7.70;5.57;;;;;;;;;;4988878;28;20074;-84
2022/08/22 01:41:46;;;;;;;9.27;5.80;;;;;;;;;;5006194;28;20406;-84
2022/08/22 01:44:21;;;;;;;7.90;5.20;;;;;;;;;;4989636;28;20052;-83
2022/08/22 01:46:56;;;;;;;9.73;5.85;;;;;;;;;;4988466;28;20050;-83
2022/08/22 01:49:28;;;;;;;9.82;5.47;;;;;;;;;;4988602;28;20051;-83
2022/08/22 01:51:55;;;;;;;8.45;5.03;;;;;;;;;;4987918;28;20178;-83
2022/08/22 01:54:30;;;;;;;10.30;5.65;;;;;;;;;;4970514;28;20093;-83
2022/08/22 01:57:04;;;;;;;9.52;5.53;;;;;;;;;;4987562;28;20101;-83
2022/08/22 01:59:35;;;;;;;8.82;5.03;;;;;;;;;;4989606;28;20062;-84
2022/08/22 02:02:11;;;;;;;9.35;5.13;;;;;;;;;;4989258;28;20082;-84
2022/08/22 02:04:37;;;;;;;10.77;5.28;;;;;;;;;;4983112;28;20055;-84
2022/08/22 02:07:06;;;;;;;7.72;4.88;;;;;;;;;;4971985;28;20407;-84
2022/08/22 02:09:44;;;;;;;5.32;4.43;;;;;;;;;;4972435;28;20050;-84
2022/08/22 02:12:10;;;;;;;8.95;4.80;;;;;;;;;;4967772;28;20455;-83
2022/08/22 02:14:47;;;;;;;9.52;5.18;;;;;;;;;;5002207;28;20055;-83
2022/08/22 02:17:26;;;;;;;9.70;5.50;;;;;;;;;;4970970;28;20051;-84
2022/08/22 02:20:03;;;;;;;9.52;5.00;;;;;;;;;;4972615;28;20085;-84
2022/08/22 02:22:32;;;;;;;8.85;4.65;;;;;;;;;;4972411;28;20043;-84
2022/08/22 02:25:24;;;;;;;7.38;4.68;;;;;;;;;;4971300;28;20050;-83
2022/08/22 02:28:11;;;;;;;7.63;4.55;;;;;;;;;;4978447;28;20157;-84
2022/08/22 02:30:47;;;;;;;8.57;4.93;;;;;;;;;;4971503;28;20135;-84
2022/08/22 02:33:21;;;;;;;5.57;3.30;;;;;;;;;;4971011;28;20085;-84
2022/08/22 02:36:01;;;;;;;3.60;2.30;;;;;;;;;;4971334;28;20043;-84
2022/08/22 02:38:37;;;;;;;3.90;2.58;;;;;;;;;;4972258;28;20046;-84
2022/08/22 02:41:14;;;;;;;3.40;2.60;;;;;;;;;;4971841;28;20506;-84
2022/08/22 02:43:47;;;;;;;3.92;2.40;;;;;;;;;;4972136;28;20046;-84
2022/08/22 02:46:22;;;;;;;2.92;2.33;;;;;;;;;;4970295;28;20054;-83
2022/08/22 02:48:56;;;;;;;2.95;2.50;;;;;;;;;;4971774;28;20116;-83
2022/08/22 02:51:34;;;;;;;4.82;2.92;;;;;;;;;;4972178;28;20055;-83
2022/08/22 02:54:10;;;;;;;4.78;3.15;;;;;;;;;;5002425;28;20047;-84
2022/08/22 02:56:44;;;;;;;4.80;2.40;;;;;;;;;;5003065;28;20047;-83
2022/08/22 02:59:16;;;;;;;3.53;1.60;;;;;;;;;;4971911;28;20057;-83
2022/08/22 03:01:44;;;;;;;2.05;1.60;;;;;;;;;;4970881;28;20043;-84
2022/08/22 03:04:25;;;;;;;2.25;1.85;;;;;;;;;;4971151;28;20070;-84
2022/08/22 03:06:58;;;;;;;2.40;1.77;;;;;;;;;;4971589;28;20496;-84
2022/08/22 03:09:30;;;;;;;2.92;2.22;;;;;;;;;;4972106;28;20054;-83
2022/08/22 03:12:02;;;;;;;4.10;2.70;;;;;;;;;;5003075;28;20047;-84
2022/08/22 03:14:39;;;;;;;3.13;2.42;;;;;;;;;;5002493;28;20074;-83
2022/08/22 03:17:09;;;;;;;5.07;2.88;;;;;;;;;;4969664;28;20050;-83
2022/08/22 03:19:53;;;;;;;4.28;2.80;;;;;;;;;;5002768;28;20051;-83
2022/08/22 03:22:38;;;;;;;3.83;2.75;;;;;;;;;;5003307;28;20138;-84
2022/08/22 03:25:11;;;;;;;3.80;3.40;;;;;;;;;;4970557;28;20126;-84
2022/08/22 03:27:50;;;;;;;4.93;2.70;;;;;;;;;;4974404;28;20047;-84
2022/08/22 03:30:21;;;;;;;3.88;2.85;;;;;;;;;;4973982;28;20574;-83
2022/08/22 03:32:52;;;;;;;4.00;2.58;;;;;;;;;;4973328;28;20130;-83
2022/08/22 03:35:42;;;;;;;4.85;3.05;;;;;;;;;;4972159;28;20097;-83
2022/08/22 03:38:12;;;;;;;7.47;3.55;;;;;;;;;;4991768;28;20084;-84
2022/08/22 03:40:51;;;;;;;6.35;3.88;;;;;;;;;;4976133;28;20066;-84
2022/08/22 03:43:17;;;;;;;5.55;2.85;;;;;;;;;;4990892;28;20054;-83
2022/08/22 03:45:55;;;;;;;4.00;2.30;;;;;;;;;;4991679;28;20042;-83
2022/08/22 03:48:37;;;;;;;2.08;1.70;;;;;;;;;;4990611;28;20058;-84
2022/08/22 03:51:06;;;;;;;1.65;1.55;;;;;;;;;;4975555;28;20395;-84
2022/08/22 03:53:48;;;;;;;2.47;1.90;;;;;;;;;;4990752;28;20053;-84
2022/08/22 03:56:14;;;;;;;3.00;2.20;;;;;;;;;;4991600;28;20141;-84
2022/08/22 03:58:40;;;;;;;4.50;2.80;;;;;;;;;;4991434;28;20078;-83
2022/08/22 04:01:24;;;;;;;3.17;2.58;;;;;;;;;;4991146;28;20070;-83
2022/08/22 04:04:09;;;;;;;5.68;2.90;;;;;;;;;;4990166;28;20085;-84
2022/08/22 04:06:54;;;;;;;6.55;2.92;;;;;;;;;;4991304;28;20053;-83
2022/08/22 04:09:38;;;;;;;5.65;3.17;;;;;;;;;;4991675;28;20137;-83
2022/08/22 04:12:21;;;;;;;5.70;3.35;;;;;;;;;;4991116;28;20105;-83
2022/08/22 04:14:59;;;;;;;4.40;3.30;;;;;;;;;;4977407;28;20058;-83
2022/08/22 04:17:54;;;;;;;6.10;3.50;;;;;;;;;;4961445;28;20399;-84
2022/08/22 04:20:49;;;;;;;3.75;2.90;;;;;;;;;;4977835;28;20055;-84
2022/08/22 04:23:27;;;;;;;2.63;1.90;;;;;;;;;;4990280;28;20499;-83
2022/08/22 04:25:58;;;;;;;2.83;1.80;;;;;;;;;;4975227;28;20179;-84
2022/08/22 04:28:42;;;;;;;3.42;2.08;;;;;;;;;;4990841;28;20551;-83
2022/08/22 04:31:13;;;;;;;2.50;2.10;;;;;;;;;;4991017;28;20049;-83
2022/08/22 04:34:07;;;;;;;3.05;2.25;;;;;;;;;;5005580;28;20050;-83
2022/08/22 04:36:39;;;;;;;3.28;2.03;;;;;;;;;;4950755;29;20081;-84
2022/08/22 04:39:12;;;;;;;3.08;2.00;;;;;;;;;;4950811;28;20484;-83
2022/08/22 04:41:47;;;;;;;3.40;2.53;;;;;;;;;;4936286;29;20059;-84
2022/08/22 04:44:27;;;;;;;4.00;2.60;;;;;;;;;;4935124;29;20110;-83
2022/08/22 04:46:57;;;;;;;4.05;2.90;;;;;;;;;;4951796;29;20094;-83
2022/08/22 04:49:27;;;;;;;5.03;2.90;;;;;;;;;;4951991;29;20043;-84
2022/08/22 04:51:57;;;;;;;3.90;2.63;;;;;;;;;;4950915;29;20043;-84
2022/08/22 04:54:23;;;;;;;5.65;2.22;;;;;;;;;;4950667;29;20051;-83
2022/08/22 04:57:01;;;;;;;4.65;2.03;;;;;;;;;;4951738;29;20055;-84
2022/08/22 04:59:29;;;;;;;3.25;1.90;;;;;;;;;;4951680;29;20515;-83
2022/08/22 05:01:57;;;;;;;4.90;2.40;;;;;;;;;;4951696;29;20075;-84
2022/08/22 05:04:26;;;;;;;3.97;3.00;;;;;;;;;;4951041;28;20053;-83
2022/08/22 05:06:53;;;;;;;5.07;2.97;;;;;;;;;;4951897;29;20143;-84
2022/08/22 05:09:23;;;;;;;6.10;3.05;;;;;;;;;;4950962;29;20035;-84
2022/08/22 05:11:51;;;;;;;3.92;2.15;;;;;;;;;;4951887;28;20086;-84
2022/08/22 05:14:21;;;;;;;3.80;1.90;;;;;;;;;;5003623;28;20042;-84
2022/08/22 05:16:50;;;;;;;3.35;2.10;;;;;;;;;;4973189;28;20391;-84
2022/08/22 05:19:18;;;;;;;4.15;2.72;;;;;;;;;;4972855;28;20126;-84
2022/08/22 05:21:46;;;;;;;3.65;2.17;;;;;;;;;;4973054;28;20443;-83
2022/08/22 05:24:24;;;;;;;6.32;2.63;;;;;;;;;;4971186;28;20050;-84
2022/08/22 05:26:54;;;;;;;3.65;2.00;;;;;;;;;;4972576;28;20097;-83
2022/08/22 05:29:22;;;;;;;4.97;2.30;;;;;;;;;;4973078;28;20046;-84
2022/08/22 05:31:51;;;;;;;3.45;2.22;;;;;;;;;;4972016;28;20039;-84
2022/08/22 05:34:23;;;;;;;4.70;2.90;;;;;;;;;;5003645;28;20054;-83
2022/08/22 05:36:57;;;;;;;4.65;2.90;;;;;;;;;;4972860;28;20563;-83
2022/08/22 05:39:25;;;;;;;4.43;2.90;;;;;;;;;;4972169;28;20043;-84
2022/08/22 05:41:53;;;;;;;4.95;3.30;;;;;;;;;;4971806;28;20043;-84
2022/08/22 05:44:22;;;;;;;7.70;4.00;;;;;;;;;;4973064;28;20086;-84
2022/08/22 05:46:50;;;;;;;9.82;4.45;;;;;;;;;;4972457;28;20042;-83
2022/08/22 05:49:18;;;;;;;7.20;4.88;;;;;;;;;;5003810;28;20062;-83
2022/08/22 05:51:52;;;;;;;10.90;6.47;;;;;;;;;;4971679;28;20090;-84
2022/08/22 05:54:20;;;;;;;11.85;5.60;;;;;;;;;;4972277;28;20054;-84
2022/08/22 05:56:50;;;;;;;9.43;4.80;;;;;;;;;;4972783;28;20049;-83
2022/08/22 05:59:27;;;;;;;9.20;5.90;;;;;;;;;;4972273;28;20054;-84
2022/08/22 06:02:05;;;;;;;9.90;6.15;;;;;;;;;;4971756;28;20046;-84
2022/08/22 06:04:31;;;;;;;11.10;5.93;;;;;;;;;;5003786;28;20464;-84
2022/08/22 06:07:02;;;;;;;8.98;5.78;;;;;;;;;;4971562;28;20114;-87
2022/08/22 06:10:00;;;;;;;10.65;6.43;;;;;;;;;;5003413;28;20053;-84
2022/08/22 06:12:33;;;;;;;9.50;5.70;;;;;;;;;;5002862;28;20093;-84
2022/08/22 06:15:04;;;;;;;9.90;5.72;;;;;;;;;;4972033;28;20130;-83
2022/08/22 06:17:34;;;;;;;9.80;5.95;;;;;;;;;;4971939;28;20117;-83
2022/08/22 06:20:02;;;;;;;8.88;5.90;;;;;;;;;;4972064;28;20137;-83
2022/08/22 06:22:30;;;;;;;10.18;5.30;;;;;;;;;;4970171;28;20066;-84
2022/08/22 06:24:59;;;;;;;11.20;5.30;;;;;;;;;;5002167;28;20047;-83
2022/08/22 06:27:26;;;;;;;8.60;5.30;;;;;;;;;;4972505;28;20129;-83
2022/08/22 06:29:57;;;;;;;9.70;5.80;;;;;;;;;;4972500;28;20055;-83
2022/08/22 06:32:30;;;;;;;10.02;5.68;;;;;;;;;;4971290;28;20046;-83
2022/08/22 06:35:00;;;;;;;9.68;6.20;;;;;;;;;;4970931;28;20047;-83
2022/08/22 06:37:30;;;;;;;8.88;5.18;;;;;;;;;;5002547;28;20074;-83
2022/08/22 06:39:58;;;;;;;9.77;6.40;;;;;;;;;;5002952;28;20059;-84
2022/08/22 06:42:29;;;;;;;11.73;6.80;;;;;;;;;;4971764;28;20089;-83
2022/08/22 06:44:58;;;;;;;11.02;6.43;;;;;;;;;;4971485;28;20122;-85
2022/08/22 06:47:36;;;;;;;12.80;6.90;;;;;;;;;;4999430;28;20094;-84
2022/08/22 06:50:05;;;;;;;10.65;6.82;;;;;;;;;;5002592;28;20043;-84
2022/08/22 06:52:33;;;;;;;11.80;7.03;;;;;;;;;;4969571;28;20472;-91
2022/08/22 06:55:05;;;;;;;13.75;7.00;;;;;;;;;;4971836;28;20042;-85
2022/08/22 06:57:34;;;;;;;14.23;8.02;;;;;;;;;;4969409;28;20050;-84
2022/08/22 07:00:08;;;;;;;10.48;6.57;;;;;;;;;;4971679;28;20130;-86
2022/08/22 07:02:46;;;;;;;12.68;7.88;;;;;;;;;;5005722;28;20062;-83
2022/08/22 07:05:20;;;;;;;10.95;7.70;;;;;;;;;;5006113;28;20051;-86
2022/08/22 07:07:46;;;;;;;13.13;6.60;;;;;;;;;;5006403;28;20126;-85
2022/08/22 07:10:13;;;;;;;11.70;6.72;;;;;;;;;;5006253;28;20078;-86
2022/08/22 07:12:44;;;;;;;15.52;7.10;;;;;;;;;;4987372;28;20151;-82
2022/08/22 07:15:33;;;;;;;10.18;7.10;;;;;;;;;;4964503;28;20051;-83
2022/08/22 07:18:01;;;;;;;12.18;6.85;;;;;;;;;;4975718;28;20504;-84
2022/08/22 07:20:30;;;;;;;12.65;7.53;;;;;;;;;;4976010;28;20114;-83
2022/08/22 07:22:58;;;;;;;10.30;7.07;;;;;;;;;;4973877;28;20047;-83
2022/08/22 07:25:24;;;;;;;13.27;7.20;;;;;;;;;;4973975;28;20129;-83
2022/08/22 07:27:56;;;;;;;15.13;7.85;;;;;;;;;;4967029;28;20396;-83
2022/08/22 07:30:23;;;;;;;12.85;6.63;;;;;;;;;;4974155;28;20506;-83
2022/08/22 07:32:49;;;;;;;8.50;5.93;;;;;;;;;;4975041;28;20399;-83
2022/08/22 07:35:34;;;;;;;11.02;5.60;;;;;;;;;;4974306;28;20500;-84
2022/08/22 07:38:08;;;;;;;9.00;5.15;;;;;;;;;;5005376;28;20101;-84
2022/08/22 07:40:38;;;;;;;10.35;5.20;;;;;;;;;;4970035;28;20080;-84
2022/08/22 07:43:04;;;;;;;10.68;5.20;;;;;;;;;;5006357;28;20431;-83
2022/08/22 07:45:38;;;;;;;10.50;6.10;;;;;;;;;;5021819;28;20129;-84
2022/08/22 07:48:10;;;;;;;9.50;5.45;;;;;;;;;;4972984;28;20051;-83
2022/08/22 07:50:38;;;;;;;8.10;4.68;;;;;;;;;;4970153;28;20463;-85
2022/08/22 07:53:16;;;;;;;10.18;5.40;;;;;;;;;;4972550;28;20030;-84
2022/08/22 07:55:42;;;;;;;9.40;4.80;;;;;;;;;;4973757;28;20121;-86
2022/08/22 07:58:12;;;;;;;10.07;4.82;;;;;;;;;;5001430;28;20492;-83
2022/08/22 08:00:42;;;;;;;12.02;4.38;;;;;;;;;;4962512;28;20046;-84
2022/08/22 08:03:08;;;;;;;14.55;4.78;;;;;;;;;;4973340;28;20057;-82
2022/08/22 08:05:35;;;;;;;12.38;5.00;;;;;;;;;;4986933;28;20050;-88
2022/08/22 08:08:15;;;;;;;10.80;5.03;;;;;;;;;;4974419;28;20093;-87
2022/08/22 08:10:42;;;;;;;10.80;5.32;;;;;;;;;;4966131;28;20039;-87
2022/08/22 08:13:11;;;;;;;9.32;5.07;;;;;;;;;;4969842;28;20573;-87
2022/08/22 08:15:39;;;;;;;11.10;5.40;;;;;;;;;;4972439;28;20046;-87
2022/08/22 08:18:12;;;;;;;8.70;4.57;;;;;;;;;;5004068;28;20486;-87
2022/08/22 08:20:38;;;;;;;11.15;5.03;;;;;;;;;;5003869;28;20416;-87
2022/08/22 08:23:09;;;;;;;9.43;4.80;;;;;;;;;;4968662;28;20047;-87
2022/08/22 08:25:47;;;;;;;7.72;3.85;;;;;;;;;;4971457;28;20185;-87
2022/08/22 08:31:01;;;;;;;8.95;4.72;;;;;;;;;;4969016;28;20043;-87
2022/08/22 08:33:28;;;;;;;10.05;4.40;;;;;;;;;;5003582;28;20134;-88
2022/08/22 08:36:12;;;;;;;10.35;4.63;;;;;;;;;;4970863;28;20412;-87
2022/08/22 08:38:45;;;;;;;8.70;5.05;;;;;;;;;;4973579;28;20508;-87
2022/08/22 08:41:23;;;;;;;11.07;4.90;;;;;;;;;;4973668;28;20032;-87
2022/08/22 08:43:52;;;;;;;8.45;4.07;;;;;;;;;;4964035;28;20038;-87
2022/08/22 08:46:23;;;;;;;9.68;4.57;;;;;;;;;;4975901;28;20041;-87
2022/08/22 08:48:50;;;;;;;9.35;4.00;;;;;;;;;;4951939;28;1081737;-87
2022/08/22 08:51:19;;;;;;;9.35;3.80;;;;;;;;;;5001712;28;20065;-88
2022/08/22 08:54:02;;;;;;;8.48;4.07;;;;;;;;;;4973446;28;20046;-88
2022/08/22 08:56:43;;;;;;;10.05;4.20;;;;;;;;;;4972593;28;20058;-84
2022/08/22 08:59:15;;;;;;;10.70;4.43;;;;;;;;;;4971269;28;20081;-83
2022/08/22 09:02:01;;;;;;;11.32;4.40;;;;;;;;;;4954428;28;20047;-84
2022/08/22 09:04:37;;;;;;;11.97;5.10;;;;;;;;;;4969404;28;20046;-83
2022/08/22 09:07:15;;;;;;;9.75;3.88;;;;;;;;;;5003570;28;20482;-84
2022/08/22 09:10:05;;;;;;;9.48;4.00;;;;;;;;;;4972715;28;20050;-84
2022/08/22 09:12:37;;;;;;;9.45;3.97;;;;;;;;;;4993511;28;20132;-84
2022/08/22 09:15:18;;;;;;;10.98;3.85;;;;;;;;;;5009613;28;20550;-84
2022/08/22 09:17:58;;;;;;;8.13;4.35;;;;;;;;;;4999044;28;20049;-85
2022/08/22 09:20:46;;;;;;;10.18;3.63;;;;;;;;;;5011390;28;20128;-85
2022/08/22 09:23:18;;;;;;;7.45;3.60;;;;;;;;;;4981054;28;20057;-88
2022/08/22 09:25:50;;;;;;;9.65;3.90;;;;;;;;;;5009493;28;20049;-88
2022/08/22 09:28:23;;;;;;;6.53;3.78;;;;;;;;;;4993255;28;20089;-86
2022/08/22 09:30:56;;;;;;;7.28;3.80;;;;;;;;;;5006912;28;20057;-87
2022/08/22 09:33:24;;;;;;;6.70;3.90;;;;;;;;;;5008175;28;20076;-86
2022/08/22 09:35:59;;;;;;;8.00;2.97;;;;;;;;;;5010089;28;20085;-87
2022/08/22 09:38:25;;;;;;;;;;;;;;;;;;5010355;28;20112;-85
2022/08/22 09:41:07;;;;;;;9.27;3.30;;;;;;;;;;5008523;28;19921;-85
2022/08/22 09:43:42;;;;;;;6.25;3.03;;;;;;;;;;5009442;28;20503;-85
2022/08/22 09:46:08;;;;;;;5.90;2.95;;;;;;;;;;5008391;28;20446;-85
2022/08/22 09:48:37;;;;;;;5.45;3.13;;;;;;;;;;5004266;28;20502;-85
2022/08/22 09:51:21;;;;;;;6.50;2.80;;;;;;;;;;4971801;28;20507;-85
2022/08/22 09:53:55;;;;;;;6.13;2.70;;;;;;;;;;5004011;28;20101;-84
2022/08/22 09:56:30;;;;;;;8.27;2.90;;;;;;;;;;4972717;28;20126;-85
2022/08/22 09:59:02;;;;;;;6.60;2.83;;;;;;;;;;4972428;28;20042;-85
2022/08/22 10:01:35;;;;;;;5.95;2.65;;;;;;;;;;4969521;28;20499;-85
2022/08/22 10:04:20;;;;;;;6.15;3.17;;;;;;;;;;5003629;28;20082;-85
2022/08/22 10:07:09;;;;;;;9.88;3.35;;;;;;;;;;4972716;28;20091;-85
2022/08/22 10:09:38;;;;;;;8.50;3.30;;;;;;;;;;4971729;28;20125;-85
2022/08/22 10:12:10;;;;;;;9.40;3.15;;;;;;;;;;4972191;28;20078;-85
2022/08/22 10:14:39;;;;;;;8.23;3.67;;;;;;;;;;4971807;28;20053;-87
2022/08/22 10:17:19;;;;;;;5.80;3.00;;;;;;;;;;4971269;28;20047;-86
2022/08/22 10:19:49;;;;;;;8.50;2.90;;;;;;;;;;4967834;28;20388;-86
2022/08/22 10:22:25;;;;;;;6.70;2.90;;;;;;;;;;5002915;28;20054;-85
2022/08/22 10:24:51;;;;;;;8.57;3.20;;;;;;;;;;4970895;28;20068;-86
2022/08/22 10:27:30;;;;;;;8.55;2.90;;;;;;;;;;4971870;28;20039;-87
2022/08/22 10:30:07;;;;;;;7.35;3.05;;;;;;;;;;5001684;28;20050;-91
2022/08/22 10:32:42;;;;;;;5.20;2.60;;;;;;;;;;4971111;28;20050;-85
2022/08/22 10:35:16;;;;;;;8.50;3.00;;;;;;;;;;5003324;28;20129;-84
2022/08/22 10:37:53;;;;;;;5.20;2.75;;;;;;;;;;5005904;28;20070;-85
2022/08/22 10:40:32;;;;;;;5.10;2.60;;;;;;;;;;4975356;28;20054;-90
2022/08/22 10:43:13;;;;;;;7.25;2.85;;;;;;;;;;5023702;28;20460;-85
2022/08/22 10:45:47;;;;;;;6.88;2.92;;;;;;;;;;4973883;28;20039;-87
2022/08/22 10:48:21;;;;;;;8.57;2.97;;;;;;;;;;4999329;28;20504;-85
2022/08/22 10:50:48;;;;;;;8.63;3.00;;;;;;;;;;4974743;28;20405;-85
2022/08/22 10:53:30;;;;;;;5.60;2.90;;;;;;;;;;4974308;28;20087;-85
2022/08/22 10:56:12;;;;;;;6.38;2.88;;;;;;;;;;4975185;28;20180;-85
2022/08/22 10:58:41;;;;;;;5.35;2.75;;;;;;;;;;5006050;28;20043;-85
2022/08/22 11:01:10;;;;;;;9.50;3.30;;;;;;;;;;4974965;28;20495;-86
2022/08/22 11:03:46;;;;;;;7.05;3.05;;;;;;;;;;4975100;28;20524;-86
2022/08/22 11:06:14;;;;;;;5.85;2.80;;;;;;;;;;4974930;28;20093;-91
2022/08/22 11:08:39;;;;;;;6.45;3.08;;;;;;;;;;4974922;28;20047;-85
2022/08/22 11:11:15;;;;;;;4.78;2.60;;;;;;;;;;4975374;28;20045;-85
2022/08/22 11:13:53;;;;;;;6.03;2.70;;;;;;;;;;4975167;28;20492;-85
2022/08/22 11:16:19;;;;;;;6.03;2.70;;;;;;;;;;4971707;28;20051;-85
2022/08/22 11:19:01;;;;;;;8.52;3.60;;;;;;;;;;4974889;28;20050;-85
2022/08/22 11:21:47;;;;;;;7.22;2.70;;;;;;;;;;4975494;28;20094;-84
2022/08/22 11:24:25;;;;;;;6.10;2.95;;;;;;;;;;4974812;28;20122;-85
2022/08/22 11:27:10;;;;;;;9.43;3.25;;;;;;;;;;4973502;28;20041;-85
2022/08/22 11:29:37;;;;;;;5.28;3.30;;;;;;;;;;4967078;28;20049;-85
2022/08/22 11:32:22;;;;;;;8.50;2.88;;;;;;;;;;4974966;28;20043;-85
2022/08/22 11:34:48;;;;;;;8.27;3.00;;;;;;;;;;4974973;28;20049;-85
2022/08/22 11:37:21;;;;;;;5.70;3.05;;;;;;;;;;4971883;28;20042;-85
2022/08/22 11:40:18;;;;;;;4.43;2.90;;;;;;;;;;5004700;28;20140;-85
2022/08/22 11:42:47;;;;;;;7.07;3.05;;;;;;;;;;4977409;28;20047;-85
2022/08/22 11:45:18;;;;;;;7.35;3.50;;;;;;;;;;4972464;28;20074;-85
2022/08/22 11:47:48;;;;;;;7.95;3.28;;;;;;;;;;4971398;28;20054;-85
2022/08/22 11:50:23;;;;;;;7.57;3.47;;;;;;;;;;5004344;28;20058;-85
2022/08/22 11:53:13;;;;;;;7.82;3.30;;;;;;;;;;4973241;28;20043;-85
2022/08/22 11:55:50;;;;;;;8.18;3.17;;;;;;;;;;5020251;28;20046;-85
2022/08/22 11:58:23;;;;;;;7.25;3.10;;;;;;;;;;5001656;28;20078;-85
2022/08/22 12:00:53;;;;;;;6.93;3.25;;;;;;;;;;4968406;28;20042;-85
2022/08/22 12:03:38;;;;;;;6.78;3.25;;;;;;;;;;5003576;28;20051;-85
2022/08/22 12:06:17;;;;;;;9.98;3.42;;;;;;;;;;5003759;28;20094;-85
2022/08/22 12:09:03;;;;;;;13.43;4.30;;;;;;;;;;4973665;28;20053;-85
2022/08/22 12:11:29;;;;;;;;;;;;;;;;;;4975083;28;20488;-85
2022/08/22 12:13:58;;;;;;;9.55;3.65;;;;;;;;;;4972352;28;20438;-85
2022/08/22 12:16:24;;;;;;;10.80;3.53;;;;;;;;;;4971937;28;20097;-85
2022/08/22 12:18:55;;;;;;;6.78;3.20;;;;;;;;;;5001335;28;20043;-85
2022/08/22 12:21:30;;;;;;;6.70;3.30;;;;;;;;;;5003737;28;20112;-85
2022/08/22 12:23:56;;;;;;;11.20;3.95;;;;;;;;;;4972048;28;20047;-85
2022/08/22 12:26:28;;;;;;;6.68;3.08;;;;;;;;;;4973698;28;20057;-85
2022/08/22 12:29:03;;;;;;;5.95;2.97;;;;;;;;;;4973075;28;20050;-85
2022/08/22 12:31:29;;;;;;;8.40;3.30;;;;;;;;;;4971761;28;20455;-86
2022/08/22 12:34:00;;;;;;;6.72;3.30;;;;;;;;;;4972693;28;20500;-85
2022/08/22 12:36:26;;;;;;;7.90;3.55;;;;;;;;;;5004768;28;20054;-85
2022/08/22 12:38:55;;;;;;;7.10;3.20;;;;;;;;;;4973767;28;20377;-85
2022/08/22 12:41:35;;;;;;;9.70;3.40;;;;;;;;;;4973054;28;20046;-86
2022/08/22 12:44:16;;;;;;;7.55;3.53;;;;;;;;;;5019003;28;20448;-85
2022/08/22 12:46:42;;;;;;;8.02;3.20;;;;;;;;;;4970834;28;20050;-85
2022/08/22 12:49:17;;;;;;;6.43;3.47;;;;;;;;;;4972656;28;20404;-85
2022/08/22 12:52:01;;;;;;;10.07;3.80;;;;;;;;;;4972754;28;20043;-85
2022/08/22 12:54:39;;;;;;;8.52;3.30;;;;;;;;;;5002385;28;20377;-85
2022/08/22 12:57:20;;;;;;;8.98;3.67;;;;;;;;;;5003667;28;20050;-85
2022/08/22 12:59:47;;;;;;;8.52;3.90;;;;;;;;;;4970734;28;20436;-85
2022/08/22 13:02:17;;;;;;;10.57;3.78;;;;;;;;;;4973148;28;20382;-86
2022/08/22 13:05:06;;;;;;;9.05;3.42;;;;;;;;;;4973233;28;20054;-85
2022/08/22 13:07:34;;;;;;;6.90;3.40;;;;;;;;;;4972159;28;20508;-85
2022/08/22 13:10:03;;;;;;;6.90;3.55;;;;;;;;;;5003495;28;20147;-85
2022/08/22 13:12:31;;;;;;;9.02;3.85;;;;;;;;;;4972129;28;20061;-85
2022/08/22 13:15:05;;;;;;;8.02;3.42;;;;;;;;;;4972184;28;20047;-85
2022/08/22 13:17:32;;;;;;;7.55;3.50;;;;;;;;;;4964598;28;20039;-85
2022/08/22 13:20:01;;;;;;;8.23;3.58;;;;;;;;;;5003379;28;20046;-85
2022/08/22 13:22:28;;;;;;;6.90;3.38;;;;;;;;;;5004497;28;20057;-85
2022/08/22 13:24:57;;;;;;;7.45;3.45;;;;;;;;;;5002537;28;20055;-85
2022/08/22 13:27:27;;;;;;;7.60;3.35;;;;;;;;;;5004677;28;20065;-85
2022/08/22 13:29:56;;;;;;;8.50;3.60;;;;;;;;;;4972274;28;20043;-85
2022/08/22 13:32:31;;;;;;;8.40;3.60;;;;;;;;;;5004008;28;20480;-85
2022/08/22 13:34:57;;;;;;;;;;;;;;;;;;4973656;28;20050;-85
2022/08/22 13:37:24;;;;;;;;;;;;;;;;;;5003178;28;19970;-85
2022/08/22 13:39:52;;;;;;;6.28;3.42;;;;;;;;;;5003204;28;19937;-85
2022/08/22 13:42:23;;;;;;;8.05;3.50;;;;;;;;;;4971510;28;20039;-85
2022/08/22 13:44:51;;;;;;;10.00;3.50;;;;;;;;;;4973453;28;20501;-85
2022/08/22 13:47:18;;;;;;;7.18;4.00;;;;;;;;;;4969851;28;20058;-85
2022/08/22 13:49:46;;;;;;;9.57;3.80;;;;;;;;;;5003205;28;20488;-85
2022/08/22 13:52:12;;;;;;;7.85;3.20;;;;;;;;;;4972322;28;20311;-86
2022/08/22 13:54:45;;;;;;;10.25;3.97;;;;;;;;;;4971324;28;20051;-86
2022/08/22 13:57:11;;;;;;;8.27;4.13;;;;;;;;;;4972237;28;20412;-86
2022/08/22 13:59:37;;;;;;;11.63;3.90;;;;;;;;;;4970061;28;20043;-86
2022/08/22 14:02:12;;;;;;;9.98;3.50;;;;;;;;;;4971262;28;20528;-85
2022/08/22 14:04:40;;;;;;;9.30;3.72;;;;;;;;;;5004118;28;20133;-86
2022/08/22 14:07:06;;;;;;;6.25;3.10;;;;;;;;;;5003374;28;20089;-86
2022/08/22 14:09:38;;;;;;;8.93;3.65;;;;;;;;;;5002740;28;20119;-86
2022/08/22 14:12:07;;;;;;;9.10;3.38;;;;;;;;;;4972208;28;20568;-86
2022/08/22 14:14:34;;;;;;;9.82;3.50;;;;;;;;;;4979274;28;20492;-85
2022/08/22 14:17:01;;;;;;;8.27;3.22;;;;;;;;;;4970356;28;20042;-85
2022/08/22 14:19:39;;;;;;;7.72;3.20;;;;;;;;;;5002515;28;20043;-85
2022/08/22 14:22:09;;;;;;;7.43;3.22;;;;;;;;;;5002191;28;20477;-85
2022/08/22 14:24:48;;;;;;;6.30;3.15;;;;;;;;;;5019779;28;20050;-85
2022/08/22 14:27:25;;;;;;;5.82;3.28;;;;;;;;;;4971899;28;20047;-85
2022/08/22 14:29:53;;;;;;;6.97;3.67;;;;;;;;;;4971537;28;20065;-85
2022/08/22 14:32:19;;;;;;;13.25;4.22;;;;;;;;;;4998079;28;20039;-85
2022/08/22 14:34:47;;;;;;;9.23;4.00;;;;;;;;;;5001585;28;20105;-86
2022/08/22 14:37:16;;;;;;;11.45;4.20;;;;;;;;;;4970407;28;20503;-85
2022/08/22 14:39:48;;;;;;;14.75;4.88;;;;;;;;;;4972177;28;20043;-85
2022/08/22 14:42:22;;;;;;;9.15;3.72;;;;;;;;;;5003113;28;20122;-85
2022/08/22 14:44:51;;;;;;;8.43;3.60;;;;;;;;;;4965684;28;20042;-86
2022/08/22 14:47:23;;;;;;;9.25;3.90;;;;;;;;;;4970579;28;20101;-86
2022/08/22 14:49:52;;;;;;;7.65;3.50;;;;;;;;;;5003442;28;20046;-89
2022/08/22 14:52:36;;;;;;;10.20;4.03;;;;;;;;;;4965563;28;20129;-88
2022/08/22 14:55:05;;;;;;;8.05;4.00;;;;;;;;;;4972089;28;20043;-87
2022/08/22 14:57:33;;;;;;;7.63;3.65;;;;;;;;;;5002775;28;20050;-90
2022/08/22 15:00:04;;;;;;;7.70;3.63;;;;;;;;;;5002694;28;20042;-85
2022/08/22 15:02:32;;;;;;;9.85;3.70;;;;;;;;;;4970637;28;20501;-86
2022/08/22 15:05:00;;;;;;;7.63;3.65;;;;;;;;;;4972092;28;20077;-85
2022/08/22 15:07:35;;;;;;;10.00;3.83;;;;;;;;;;4971851;28;20073;-83
2022/08/22 15:10:01;;;;;;;9.82;3.63;;;;;;;;;;4971850;28;20140;-85
2022/08/22 15:12:32;;;;;;;6.53;4.15;;;;;;;;;;5002702;28;20071;-84
2022/08/22 15:15:00;;;;;;;8.40;3.58;;;;;;;;;;4970667;28;20438;-84
2022/08/22 15:17:55;;;;;;;7.03;3.53;;;;;;;;;;4970051;28;20039;-84
2022/08/22 15:20:33;;;;;;;9.55;3.40;;;;;;;;;;4998481;28;20141;-84